createdAt,value
2022-12-04T00:01:16.116Z,18.40
2022-12-04T00:03:43.106Z,18.55
2022-12-04T00:06:13.091Z,17.70
2022-12-04T00:08:40.415Z,17.80
2022-12-04T00:11:09.173Z,18.60
2022-12-04T00:13:36.711Z,19.13
2022-12-04T00:16:08.709Z,18.42
2022-12-04T00:18:35.750Z,18.13
2022-12-04T00:21:07.564Z,19.08
2022-12-04T00:23:35.561Z,19.23
2022-12-04T00:26:07.387Z,18.30
2022-12-04T00:28:35.332Z,18.75
2022-12-04T00:31:09.062Z,18.95
2022-12-04T00:33:36.044Z,17.70
2022-12-04T00:36:06.600Z,17.90
2022-12-04T00:38:33.643Z,18.45
2022-12-04T00:41:02.988Z,18.40
2022-12-04T00:43:31.038Z,18.48
2022-12-04T00:45:58.070Z,18.55
2022-12-04T00:48:25.253Z,18.48
2022-12-04T00:50:52.230Z,17.77
2022-12-04T00:53:18.986Z,17.80
2022-12-04T00:55:46.172Z,18.58
2022-12-04T00:58:13.645Z,18.73
2022-12-04T01:00:42.141Z,18.48
2022-12-04T01:03:09.775Z,18.30
2022-12-04T01:05:45.033Z,18.00
2022-12-04T01:08:12.966Z,17.95
2022-12-04T01:10:42.257Z,18.55
2022-12-04T01:13:09.399Z,17.90
2022-12-04T01:15:44.061Z,17.70
2022-12-04T01:18:15.055Z,17.95
2022-12-04T01:20:51.142Z,17.98
2022-12-04T01:23:19.202Z,16.88
2022-12-04T01:25:58.839Z,19.10
2022-12-04T01:28:26.301Z,18.45
2022-12-04T01:31:07.058Z,18.10
2022-12-04T01:33:35.937Z,18.00
2022-12-04T01:36:05.267Z,17.88
2022-12-04T01:38:32.112Z,18.60
2022-12-04T01:40:59.032Z,18.20
2022-12-04T01:43:29.005Z,18.52
2022-12-04T01:45:57.467Z,18.02
2022-12-04T01:48:30.849Z,18.27
2022-12-04T01:51:08.508Z,18.02
2022-12-04T01:53:40.189Z,18.63
2022-12-04T01:56:08.459Z,16.80
2022-12-04T01:58:44.193Z,17.17
2022-12-04T02:01:11.290Z,18.35
2022-12-04T02:03:39.013Z,19.58
2022-12-04T02:06:06.437Z,18.73
2022-12-04T02:08:36.658Z,18.63
2022-12-04T02:11:27.422Z,18.58
2022-12-04T02:14:04.780Z,17.92
2022-12-04T02:16:42.068Z,18.20
2022-12-04T02:19:14.457Z,18.48
2022-12-04T02:21:46.096Z,17.98
2022-12-04T02:24:34.102Z,17.63
2022-12-04T02:27:43.139Z,17.90
2022-12-04T02:30:14.480Z,18.98
2022-12-04T02:32:57.160Z,19.13
2022-12-04T02:35:30.609Z,19.08
2022-12-04T02:38:05.373Z,18.30
2022-12-04T02:40:50.612Z,19.50
2022-12-04T02:43:29.670Z,18.10
2022-12-04T02:46:20.563Z,19.27
2022-12-04T02:48:51.265Z,17.92
2022-12-04T02:51:21.229Z,18.90
2022-12-04T02:53:53.444Z,18.45
2022-12-04T02:56:29.862Z,18.13
2022-12-04T02:59:01.143Z,18.85
2022-12-04T03:01:33.262Z,18.58
2022-12-04T03:04:05.103Z,18.10
2022-12-04T03:06:35.713Z,19.33
2022-12-04T03:09:27.951Z,17.95
2022-12-04T03:12:03.754Z,18.92
2022-12-04T03:14:37.965Z,18.90
2022-12-04T03:17:17.965Z,17.85
2022-12-04T03:19:51.019Z,17.92
2022-12-04T03:22:21.863Z,19.20
2022-12-04T03:24:52.460Z,18.50
2022-12-04T03:27:59.807Z,18.90
2022-12-04T03:30:34.620Z,18.70
2022-12-04T03:33:16.731Z,17.73
2022-12-04T03:36:06.726Z,19.20
2022-12-04T03:38:36.257Z,18.88
2022-12-04T03:41:04.565Z,18.63
2022-12-04T03:43:50.702Z,19.33
2022-12-04T03:46:26.842Z,19.38
2022-12-04T03:49:07.851Z,18.88
2022-12-04T03:51:41.151Z,18.38
2022-12-04T03:54:14.170Z,18.55
2022-12-04T03:56:46.565Z,18.60
2022-12-04T03:59:26.504Z,17.83
2022-12-04T04:01:57.651Z,18.40
2022-12-04T04:04:47.102Z,19.00
2022-12-04T04:07:35.352Z,18.92
2022-12-04T04:10:11.136Z,18.83
2022-12-04T04:12:44.209Z,19.42
2022-12-04T04:15:40.655Z,18.60
2022-12-04T04:18:26.057Z,18.50
2022-12-04T04:21:18.866Z,18.42
2022-12-04T04:24:08.596Z,20.08
2022-12-04T04:26:42.316Z,19.17
2022-12-04T04:29:10.235Z,18.55
2022-12-04T04:31:58.183Z,19.48
2022-12-04T04:34:43.134Z,19.40
2022-12-04T04:37:34.518Z,17.77
2022-12-04T04:40:11.673Z,18.90
2022-12-04T04:43:04.101Z,19.35
2022-12-04T04:45:40.201Z,18.02
2022-12-04T04:48:22.805Z,17.88
2022-12-04T04:50:50.794Z,19.80
2022-12-04T04:53:24.708Z,19.40
2022-12-04T04:55:51.666Z,20.25
2022-12-04T04:58:20.748Z,19.83
2022-12-04T05:01:08.636Z,18.73
2022-12-04T05:03:37.842Z,19.27
2022-12-04T05:06:04.983Z,20.75
2022-12-04T05:08:31.998Z,21.33
2022-12-04T05:10:58.824Z,20.67
2022-12-04T05:13:28.493Z,19.48
2022-12-04T05:16:00.191Z,20.08
2022-12-04T05:18:27.639Z,20.55
2022-12-04T05:20:54.677Z,19.15
2022-12-04T05:23:22.062Z,19.45
2022-12-04T05:25:48.841Z,20.40
2022-12-04T05:28:16.115Z,21.50
2022-12-04T05:30:43.009Z,20.67
2022-12-04T05:33:10.605Z,20.45
2022-12-04T05:35:37.404Z,20.02
2022-12-04T05:38:04.247Z,21.42
2022-12-04T05:40:31.009Z,20.58
2022-12-04T05:42:57.962Z,19.65
2022-12-04T05:45:24.773Z,21.35
2022-12-04T05:47:51.529Z,20.70
2022-12-04T05:50:18.390Z,20.98
2022-12-04T05:52:45.202Z,21.08
2022-12-04T05:55:11.953Z,19.55
2022-12-04T05:57:38.779Z,20.52
2022-12-04T06:00:06.332Z,20.60
2022-12-04T06:02:34.340Z,21.45
2022-12-04T06:05:01.430Z,19.30
2022-12-04T06:07:28.301Z,21.15
2022-12-04T06:09:55.655Z,19.73
2022-12-04T06:12:22.655Z,21.05
2022-12-04T06:14:49.446Z,20.52
2022-12-04T06:17:16.256Z,21.15
2022-12-04T06:19:43.024Z,21.52
2022-12-04T06:22:09.864Z,21.05
2022-12-04T06:24:36.715Z,20.45
2022-12-04T06:27:26.660Z,20.75
2022-12-04T06:29:50.445Z,20.10
2022-12-04T06:32:21.432Z,21.00
2022-12-04T06:34:55.208Z,21.45
2022-12-04T06:37:24.737Z,20.73
2022-12-04T06:39:51.861Z,20.50
2022-12-04T06:42:18.734Z,21.00
2022-12-04T06:44:45.838Z,22.92
2022-12-04T06:47:12.812Z,21.77
2022-12-04T06:49:39.681Z,20.38
2022-12-04T06:52:06.535Z,21.10
2022-12-04T06:54:33.329Z,21.85
2022-12-04T06:57:00.171Z,20.88
2022-12-04T06:59:27.968Z,22.08
2022-12-04T07:01:54.890Z,20.85
2022-12-04T07:04:21.931Z,21.33
2022-12-04T07:06:48.703Z,21.20
2022-12-04T07:09:17.182Z,20.98
2022-12-04T07:11:45.143Z,22.25
2022-12-04T07:14:12.849Z,21.25
2022-12-04T07:16:41.941Z,21.00
2022-12-04T07:19:13.716Z,23.20
2022-12-04T07:21:41.639Z,21.45
2022-12-04T07:24:08.843Z,21.48
2022-12-04T07:26:35.683Z,21.55
2022-12-04T07:29:02.509Z,20.75
2022-12-04T07:31:29.987Z,21.45
2022-12-04T07:33:58.301Z,20.95
2022-12-04T07:36:26.257Z,20.45
2022-12-04T07:38:55.217Z,21.10
2022-12-04T07:41:22.237Z,20.02
2022-12-04T07:43:49.104Z,21.10
2022-12-04T07:46:23.929Z,20.67
2022-12-04T07:48:51.144Z,21.73
2022-12-04T07:51:23.874Z,21.75
2022-12-04T07:53:53.221Z,21.63
2022-12-04T07:56:20.795Z,21.85
2022-12-04T07:58:47.587Z,20.38
2022-12-04T08:01:20.330Z,21.73
2022-12-04T08:03:49.344Z,22.25
2022-12-04T08:06:18.706Z,21.75
2022-12-04T08:08:46.639Z,21.00
2022-12-04T08:11:15.979Z,20.35
2022-12-04T08:13:42.861Z,21.33
2022-12-04T08:16:11.644Z,21.10
2022-12-04T08:18:38.891Z,22.52
2022-12-04T08:21:14.112Z,21.25
2022-12-04T08:23:42.640Z,22.15
2022-12-04T08:26:10.765Z,21.67
2022-12-04T08:28:38.433Z,22.10
2022-12-04T08:31:15.447Z,22.15
2022-12-04T08:33:43.160Z,22.10
2022-12-04T08:36:12.639Z,21.83
2022-12-04T08:38:39.773Z,22.05
2022-12-04T08:41:08.574Z,22.65
2022-12-04T08:43:35.434Z,22.35
2022-12-04T08:46:05.304Z,22.85
2022-12-04T08:48:33.325Z,22.02
2022-12-04T08:51:00.458Z,22.00
2022-12-04T08:53:27.476Z,22.40
2022-12-04T08:55:54.264Z,22.38
2022-12-04T08:58:21.448Z,22.77
2022-12-04T09:00:48.353Z,22.38
2022-12-04T09:03:18.107Z,22.70
2022-12-04T09:05:48.174Z,22.55
2022-12-04T09:08:16.353Z,21.35
2022-12-04T09:10:44.103Z,22.15
2022-12-04T09:13:10.988Z,21.60
2022-12-04T09:15:41.803Z,20.80
2022-12-04T09:18:09.208Z,20.85
2022-12-04T09:20:37.119Z,21.65
2022-12-04T09:23:05.728Z,20.48
2022-12-04T09:25:36.689Z,20.67
2022-12-04T09:28:04.253Z,19.48
2022-12-04T09:30:31.113Z,20.00
2022-12-04T09:32:57.933Z,19.88
2022-12-04T09:35:24.732Z,19.00
2022-12-04T09:37:51.686Z,20.30
2022-12-04T09:40:30.638Z,19.77
2022-12-04T09:43:17.068Z,18.70
2022-12-04T09:45:53.524Z,17.73
2022-12-04T09:48:22.400Z,18.10
2022-12-04T09:50:50.401Z,19.20
2022-12-04T09:53:22.639Z,16.85
2022-12-04T09:56:02.428Z,18.15
2022-12-04T09:58:42.000Z,16.50
2022-12-04T10:01:28.837Z,16.30
2022-12-04T10:04:01.178Z,17.02
2022-12-04T10:06:43.765Z,18.58
2022-12-04T10:09:20.461Z,16.50
2022-12-04T10:12:15.213Z,16.75
2022-12-04T10:14:49.662Z,16.88
2022-12-04T10:17:37.452Z,17.50
2022-12-04T10:20:04.268Z,17.55
2022-12-04T10:22:44.074Z,17.80
2022-12-04T10:25:22.822Z,16.75
2022-12-04T10:28:19.154Z,16.52
2022-12-04T10:30:46.914Z,16.42
2022-12-04T10:33:29.954Z,16.15
2022-12-04T10:35:57.319Z,15.40
2022-12-04T10:38:42.457Z,16.15
2022-12-04T10:41:22.040Z,16.45
2022-12-04T10:43:50.287Z,15.88
2022-12-04T10:46:31.332Z,17.25
2022-12-04T10:49:03.839Z,15.60
2022-12-04T10:51:38.162Z,15.13
2022-12-04T10:54:21.805Z,14.15
2022-12-04T10:57:00.769Z,14.00
2022-12-04T10:59:28.647Z,13.77
2022-12-04T11:02:20.182Z,14.77
2022-12-04T11:05:05.997Z,15.13
2022-12-04T11:07:37.476Z,14.35
2022-12-04T11:10:39.598Z,14.10
2022-12-04T11:13:16.142Z,14.63
2022-12-04T11:15:46.412Z,13.70
2022-12-04T11:18:22.718Z,14.20
2022-12-04T11:21:17.600Z,14.70
2022-12-04T11:23:50.165Z,13.45
2022-12-04T11:26:29.078Z,13.10
2022-12-04T11:28:58.857Z,13.60
2022-12-04T11:31:26.070Z,12.20
2022-12-04T11:33:57.063Z,12.93
2022-12-04T11:36:27.893Z,12.30
2022-12-04T11:39:15.563Z,13.43
2022-12-04T11:41:42.503Z,12.50
2022-12-04T11:44:49.547Z,13.80
2022-12-04T11:47:18.581Z,13.20
2022-12-04T11:49:45.953Z,13.52
2022-12-04T11:52:28.140Z,13.20
2022-12-04T11:55:12.567Z,13.50
2022-12-04T11:57:55.260Z,13.68
2022-12-04T12:00:23.430Z,12.20
2022-12-04T12:03:15.333Z,12.85
2022-12-04T12:05:54.214Z,12.88
2022-12-04T12:08:40.104Z,13.20
2022-12-04T12:11:28.121Z,15.93
2022-12-04T12:14:34.783Z,15.05
2022-12-04T12:17:10.598Z,14.85
2022-12-04T12:19:55.231Z,14.35
2022-12-04T12:22:47.470Z,13.45
2022-12-04T12:25:23.429Z,13.68
2022-12-04T12:27:56.079Z,12.63
2022-12-04T12:30:24.649Z,13.00
2022-12-04T12:33:22.215Z,13.20
2022-12-04T12:35:55.216Z,13.02
2022-12-04T12:38:29.883Z,12.63
2022-12-04T12:41:06.377Z,12.60
2022-12-04T12:43:38.685Z,12.18
2022-12-04T12:46:18.679Z,12.02
2022-12-04T12:49:02.761Z,11.93
2022-12-04T12:51:50.968Z,11.57
2022-12-04T12:54:28.614Z,11.25
2022-12-04T12:57:02.768Z,10.65
2022-12-04T12:59:30.083Z,10.25
2022-12-04T13:02:22.217Z,11.15
2022-12-04T13:04:53.011Z,10.30
2022-12-04T13:07:27.743Z,10.63
2022-12-04T13:10:04.217Z,10.10
2022-12-04T13:12:41.933Z,10.35
2022-12-04T13:15:15.091Z,10.40
2022-12-04T13:17:43.171Z,10.13
2022-12-04T13:20:22.405Z,10.65
2022-12-04T13:22:57.469Z,11.45
2022-12-04T13:25:48.164Z,11.23
2022-12-04T13:28:36.442Z,11.32
2022-12-04T13:31:15.658Z,11.35
2022-12-04T13:34:00.735Z,12.27
2022-12-04T13:36:57.891Z,12.30
2022-12-04T13:39:39.636Z,11.07
2022-12-04T13:42:17.003Z,11.27
2022-12-04T13:44:44.015Z,11.75
2022-12-04T13:47:29.794Z,10.40
2022-12-04T13:50:07.308Z,10.60
2022-12-04T13:52:41.252Z,11.00
2022-12-04T13:55:29.948Z,11.20
2022-12-04T13:58:03.439Z,11.00
2022-12-04T14:00:35.736Z,11.35
2022-12-04T14:03:24.105Z,12.07
2022-12-04T14:05:51.755Z,10.93
2022-12-04T14:08:25.469Z,11.68
2022-12-04T14:11:02.104Z,13.40
2022-12-04T14:13:48.646Z,11.90
2022-12-04T14:16:40.355Z,12.90
2022-12-04T14:19:08.859Z,13.00
2022-12-04T14:21:41.781Z,13.30
2022-12-04T14:24:30.789Z,13.70
2022-12-04T14:27:13.820Z,15.10
2022-12-04T14:30:00.904Z,14.23
2022-12-04T14:32:35.117Z,14.32
2022-12-04T14:35:02.816Z,14.57
2022-12-04T14:37:35.346Z,14.73
2022-12-04T14:40:07.771Z,13.80
2022-12-04T14:42:38.309Z,13.98
2022-12-04T14:45:43.733Z,14.10
2022-12-04T14:48:22.373Z,13.55
2022-12-04T14:51:03.466Z,14.35
2022-12-04T14:53:57.218Z,13.77
2022-12-04T14:56:48.167Z,13.63
2022-12-04T14:59:20.193Z,13.50
2022-12-04T15:01:49.461Z,13.50
2022-12-04T15:04:26.369Z,13.38
2022-12-04T15:06:59.719Z,13.48
2022-12-04T15:09:46.372Z,13.55
2022-12-04T15:12:34.609Z,13.73
2022-12-04T15:15:25.261Z,12.57
2022-12-04T15:18:18.106Z,13.23
2022-12-04T15:20:53.818Z,13.15
2022-12-04T15:23:38.115Z,13.52
2022-12-04T15:26:33.108Z,13.50
2022-12-04T15:29:06.264Z,13.85
2022-12-04T15:31:46.939Z,13.68
2022-12-04T15:34:17.462Z,13.73
2022-12-04T15:36:57.425Z,13.95
2022-12-04T15:39:27.570Z,14.02
2022-12-04T15:42:25.559Z,14.43
2022-12-04T15:45:01.261Z,14.30
2022-12-04T15:47:57.205Z,14.68
2022-12-04T15:50:29.386Z,14.93
2022-12-04T15:53:05.438Z,14.35
2022-12-04T15:55:53.742Z,14.35
2022-12-04T15:58:26.738Z,14.45
2022-12-04T16:01:06.151Z,14.35
2022-12-04T16:03:50.189Z,14.00
2022-12-04T16:06:19.235Z,14.98
2022-12-04T16:08:55.728Z,13.48
2022-12-04T16:11:36.041Z,15.23
2022-12-04T16:14:17.040Z,13.48
2022-12-04T16:16:50.129Z,14.25
2022-12-04T16:19:24.264Z,14.32
2022-12-04T16:21:51.403Z,14.00
2022-12-04T16:24:18.241Z,13.75
2022-12-04T16:26:45.071Z,13.80
2022-12-04T16:29:12.528Z,14.70
2022-12-04T16:31:39.459Z,14.95
2022-12-04T16:34:06.350Z,14.10
2022-12-04T16:36:33.305Z,13.15
2022-12-04T16:39:00.250Z,14.13
2022-12-04T16:41:27.071Z,12.75
2022-12-04T16:43:57.293Z,13.93
2022-12-04T16:46:26.611Z,15.02
2022-12-04T16:48:55.944Z,15.32
2022-12-04T16:51:25.659Z,14.55
2022-12-04T16:53:53.263Z,13.80
2022-12-04T16:56:20.519Z,14.13
2022-12-04T16:58:47.402Z,14.50
2022-12-04T17:01:29.578Z,15.27
2022-12-04T17:03:56.522Z,14.48
2022-12-04T17:06:23.372Z,13.68
2022-12-04T17:08:50.184Z,13.52
2022-12-04T17:11:17.997Z,13.60
2022-12-04T17:13:45.704Z,13.57
2022-12-04T17:16:15.009Z,14.35
2022-12-04T17:18:43.324Z,14.80
2022-12-04T17:21:12.144Z,14.82
2022-12-04T17:23:39.337Z,13.98
2022-12-04T17:26:09.407Z,13.82
2022-12-04T17:28:39.421Z,14.45
2022-12-04T17:31:24.005Z,14.32
2022-12-04T17:33:51.414Z,15.02
2022-12-04T17:36:23.555Z,14.27
2022-12-04T17:38:57.174Z,14.18
2022-12-04T17:41:25.152Z,15.25
2022-12-04T17:43:52.241Z,15.02
2022-12-04T17:46:22.861Z,15.18
2022-12-04T17:48:50.077Z,14.75
2022-12-04T17:51:20.635Z,15.30
2022-12-04T17:53:48.159Z,15.75
2022-12-04T17:56:18.490Z,15.45
2022-12-04T17:58:47.355Z,15.82
2022-12-04T18:01:16.619Z,15.25
2022-12-04T18:03:43.936Z,16.17
2022-12-04T18:06:16.226Z,15.52
2022-12-04T18:08:49.593Z,15.23
2022-12-04T18:11:21.276Z,16.38
2022-12-04T18:13:49.543Z,16.48
2022-12-04T18:16:16.574Z,16.30
2022-12-04T18:18:46.666Z,17.75
2022-12-04T18:21:14.492Z,18.48
2022-12-04T18:23:45.749Z,18.38
2022-12-04T18:26:15.383Z,17.45
2022-12-04T18:28:42.719Z,17.48
2022-12-04T18:31:10.167Z,17.30
2022-12-04T18:33:39.084Z,17.25
2022-12-04T18:36:09.174Z,17.05
2022-12-04T18:38:36.023Z,17.80
2022-12-04T18:41:04.707Z,16.40
2022-12-04T18:43:39.869Z,17.20
2022-12-04T18:46:09.497Z,17.80
2022-12-04T18:48:37.403Z,16.92
2022-12-04T18:51:27.074Z,17.83
2022-12-04T18:53:57.686Z,16.13
2022-12-04T18:56:25.178Z,18.80
2022-12-04T18:59:00.822Z,17.58
2022-12-04T19:01:28.660Z,17.00
2022-12-04T19:03:59.571Z,18.63
2022-12-04T19:06:35.022Z,17.70
2022-12-04T19:09:04.876Z,18.27
2022-12-04T19:11:32.086Z,17.33
2022-12-04T19:14:00.035Z,18.45
2022-12-04T19:16:27.662Z,18.15
2022-12-04T19:18:55.385Z,18.48
2022-12-04T19:21:22.609Z,19.00
2022-12-04T19:23:53.187Z,18.52
2022-12-04T19:26:20.076Z,18.10
2022-12-04T19:28:46.991Z,17.95
2022-12-04T19:31:21.871Z,18.65
2022-12-04T19:33:48.849Z,18.33
2022-12-04T19:36:16.141Z,18.30
2022-12-04T19:38:43.559Z,17.73
2022-12-04T19:41:22.674Z,19.20
2022-12-04T19:43:52.717Z,18.30
2022-12-04T19:46:23.852Z,19.25
2022-12-04T19:48:50.860Z,18.38
2022-12-04T19:51:19.894Z,19.52
2022-12-04T19:53:48.059Z,18.55
2022-12-04T19:56:19.397Z,19.52
2022-12-04T19:58:47.412Z,20.52
2022-12-04T20:01:16.847Z,19.08
2022-12-04T20:03:44.406Z,18.90
2022-12-04T20:06:15.314Z,18.55
2022-12-04T20:08:42.844Z,18.20
2022-12-04T20:11:17.634Z,18.73
2022-12-04T20:13:46.507Z,19.60
2022-12-04T20:16:16.871Z,17.48
2022-12-04T20:18:44.595Z,19.02
2022-12-04T20:21:12.786Z,17.35
2022-12-04T20:23:42.219Z,17.75
2022-12-04T20:26:11.627Z,19.35
2022-12-04T20:28:38.995Z,18.67
2022-12-04T20:31:28.243Z,18.60
2022-12-04T20:33:57.107Z,19.75
2022-12-04T20:36:26.644Z,19.83
2022-12-04T20:39:00.793Z,19.77
2022-12-04T20:41:29.514Z,19.33
2022-12-04T20:43:59.650Z,19.35
2022-12-04T20:46:32.405Z,20.52
2022-12-04T20:49:01.397Z,19.80
2022-12-04T20:51:37.496Z,20.17
2022-12-04T20:54:05.365Z,18.52
2022-12-04T20:56:34.607Z,19.88
2022-12-04T20:59:05.985Z,19.20
2022-12-04T21:01:33.493Z,19.60
2022-12-04T21:04:01.499Z,19.67
2022-12-04T21:06:37.961Z,19.15
2022-12-04T21:09:14.023Z,20.30
2022-12-04T21:11:51.167Z,20.55
2022-12-04T21:14:42.697Z,20.80
2022-12-04T21:17:13.106Z,19.42
2022-12-04T21:19:40.253Z,20.25
2022-12-04T21:22:07.203Z,20.15
2022-12-04T21:24:38.387Z,21.88
2022-12-04T21:27:07.836Z,20.15
2022-12-04T21:29:38.396Z,20.30
2022-12-04T21:32:06.811Z,21.20
2022-12-04T21:34:33.927Z,21.52
2022-12-04T21:37:00.855Z,21.10
2022-12-04T21:39:27.837Z,21.83
2022-12-04T21:42:13.230Z,20.50
2022-12-04T21:44:40.380Z,21.10
2022-12-04T21:47:07.373Z,22.27
2022-12-04T21:49:34.237Z,22.23
2022-12-04T21:52:01.057Z,21.17
2022-12-04T21:54:28.626Z,22.42
2022-12-04T21:56:56.149Z,22.27
2022-12-04T21:59:24.176Z,21.42
2022-12-04T22:01:51.575Z,21.77
2022-12-04T22:04:18.821Z,23.55
2022-12-04T22:06:45.705Z,22.60
2022-12-04T22:09:13.038Z,23.20
2022-12-04T22:11:41.571Z,22.48
2022-12-04T22:14:08.802Z,23.85
2022-12-04T22:16:41.503Z,23.88
2022-12-04T22:19:10.252Z,22.83
2022-12-04T22:21:37.321Z,23.73
2022-12-04T22:24:05.013Z,23.67
2022-12-04T22:26:32.424Z,23.08
2022-12-04T22:28:59.414Z,24.13
2022-12-04T22:31:28.917Z,22.85
2022-12-04T22:33:59.827Z,23.60
2022-12-04T22:36:29.410Z,23.05
2022-12-04T22:39:09.384Z,23.00
2022-12-04T22:41:37.105Z,20.60
2022-12-04T22:44:04.745Z,22.40
2022-12-04T22:46:32.217Z,21.30
2022-12-04T22:48:59.506Z,21.25
2022-12-04T22:51:27.319Z,22.13
2022-12-04T22:53:56.885Z,21.98
2022-12-04T22:56:29.678Z,20.90
2022-12-04T22:58:57.816Z,21.35
2022-12-04T23:01:30.983Z,22.30
2022-12-04T23:03:58.108Z,21.58
2022-12-04T23:06:26.769Z,22.55
2022-12-04T23:09:02.744Z,23.00
2022-12-04T23:11:29.747Z,22.02
2022-12-04T23:14:01.933Z,22.25
2022-12-04T23:16:31.323Z,20.70
2022-12-04T23:18:58.935Z,22.75
2022-12-04T23:21:26.072Z,21.90
2022-12-04T23:23:54.829Z,21.42
2022-12-04T23:26:29.558Z,23.52
2022-12-04T23:28:57.168Z,22.65
2022-12-04T23:31:24.472Z,22.48
2022-12-04T23:33:51.464Z,22.70
2022-12-04T23:36:18.514Z,22.33
2022-12-04T23:38:45.475Z,21.77
2022-12-04T23:41:12.275Z,22.17
2022-12-04T23:43:39.867Z,21.45
2022-12-04T23:46:11.380Z,20.23
2022-12-04T23:48:40.054Z,22.55
2022-12-04T23:51:08.231Z,21.88
2022-12-04T23:53:35.184Z,21.85
2022-12-04T23:56:12.509Z,21.88
2022-12-04T23:58:40.359Z,22.42
